sensor_id;sensor_type;location;lat;lon;timestamp;pressure;altitude;pressure_sealevel;temperature;humidity
72892;BME280;61032;50.782;6.818;2023-09-12T00:00:40;100176.59;;;23.06;64.15
72892;BME280;61032;50.782;6.818;2023-09-12T00:01:40;100181.84;;;23.04;64.31
72892;BME280;61032;50.782;6.818;2023-09-12T00:02:41;100179.88;;;23.01;64.22
72892;BME280;61032;50.782;6.818;2023-09-12T00:03:41;100176.25;;;23.04;64.17
72892;BME280;61032;50.782;6.818;2023-09-12T00:04:41;100173.91;;;22.99;64.54
72892;BME280;61032;50.782;6.818;2023-09-12T00:05:50;100178.66;;;23.02;64.31
72892;BME280;61032;50.782;6.818;2023-09-12T00:06:51;100182.69;;;23.01;64.01
72892;BME280;61032;50.782;6.818;2023-09-12T00:07:52;100168.72;;;22.98;63.82
72892;BME280;61032;50.782;6.818;2023-09-12T00:08:53;100187.25;;;22.88;64.50
72892;BME280;61032;50.782;6.818;2023-09-12T00:09:54;100178.84;;;22.88;64.44
72892;BME280;61032;50.782;6.818;2023-09-12T00:11:05;100183.66;;;22.87;64.45
72892;BME280;61032;50.782;6.818;2023-09-12T00:12:06;100170.81;;;22.90;64.54
72892;BME280;61032;50.782;6.818;2023-09-12T00:13:07;100169.22;;;22.89;64.46
72892;BME280;61032;50.782;6.818;2023-09-12T00:14:09;100174.41;;;22.90;64.37
72892;BME280;61032;50.782;6.818;2023-09-12T00:15:09;100166.75;;;22.94;63.81
72892;BME280;61032;50.782;6.818;2023-09-12T00:16:10;100167.13;;;22.96;63.75
72892;BME280;61032;50.782;6.818;2023-09-12T00:17:11;100172.78;;;22.93;63.84
72892;BME280;61032;50.782;6.818;2023-09-12T00:18:14;100165.69;;;22.85;64.07
72892;BME280;61032;50.782;6.818;2023-09-12T00:19:15;100168.13;;;22.83;64.20
72892;BME280;61032;50.782;6.818;2023-09-12T00:20:15;100166.53;;;22.82;64.69
72892;BME280;61032;50.782;6.818;2023-09-12T00:21:15;100170.97;;;22.79;64.59
72892;BME280;61032;50.782;6.818;2023-09-12T00:22:16;100163.78;;;22.75;64.39
72892;BME280;61032;50.782;6.818;2023-09-12T00:23:16;100161.06;;;22.68;64.58
72892;BME280;61032;50.782;6.818;2023-09-12T00:24:16;100165.44;;;22.72;64.96
72892;BME280;61032;50.782;6.818;2023-09-12T00:25:17;100159.81;;;22.72;64.82
72892;BME280;61032;50.782;6.818;2023-09-12T00:26:17;100157.44;;;22.71;64.52
72892;BME280;61032;50.782;6.818;2023-09-12T00:27:17;100153.78;;;22.74;64.69
72892;BME280;61032;50.782;6.818;2023-09-12T00:28:21;100161.88;;;22.68;65.01
72892;BME280;61032;50.782;6.818;2023-09-12T00:29:21;100157.91;;;22.66;65.16
72892;BME280;61032;50.782;6.818;2023-09-12T00:30:21;100151.56;;;22.61;65.30
72892;BME280;61032;50.782;6.818;2023-09-12T00:31:22;100160.78;;;22.62;65.16
72892;BME280;61032;50.782;6.818;2023-09-12T00:32:22;100149.97;;;22.60;65.39
72892;BME280;61032;50.782;6.818;2023-09-12T00:33:22;100158.00;;;22.58;65.26
72892;BME280;61032;50.782;6.818;2023-09-12T00:34:23;100151.28;;;22.52;65.65
72892;BME280;61032;50.782;6.818;2023-09-12T00:35:23;100154.59;;;22.44;65.51
72892;BME280;61032;50.782;6.818;2023-09-12T00:36:23;100143.31;;;22.47;65.87
72892;BME280;61032;50.782;6.818;2023-09-12T00:37:24;100148.06;;;22.54;65.90
72892;BME280;61032;50.782;6.818;2023-09-12T00:38:24;100145.66;;;22.52;65.64
72892;BME280;61032;50.782;6.818;2023-09-12T00:39:27;100150.16;;;22.46;65.74
72892;BME280;61032;50.782;6.818;2023-09-12T00:40:28;100145.44;;;22.40;65.79
72892;BME280;61032;50.782;6.818;2023-09-12T00:41:28;100148.31;;;22.33;66.42
72892;BME280;61032;50.782;6.818;2023-09-12T00:42:29;100143.28;;;22.20;66.54
72892;BME280;61032;50.782;6.818;2023-09-12T00:43:29;100146.50;;;22.19;66.43
72892;BME280;61032;50.782;6.818;2023-09-12T00:44:29;100148.16;;;22.13;67.19
72892;BME280;61032;50.782;6.818;2023-09-12T00:45:30;100139.38;;;22.11;67.11
72892;BME280;61032;50.782;6.818;2023-09-12T00:46:31;100142.19;;;22.11;67.44
72892;BME280;61032;50.782;6.818;2023-09-12T00:47:31;100143.81;;;22.08;67.38
72892;BME280;61032;50.782;6.818;2023-09-12T00:48:32;100144.19;;;22.10;67.66
72892;BME280;61032;50.782;6.818;2023-09-12T00:49:33;100148.91;;;22.17;67.16
72892;BME280;61032;50.782;6.818;2023-09-12T00:50:35;100150.47;;;22.21;67.23
72892;BME280;61032;50.782;6.818;2023-09-12T00:51:37;100143.59;;;22.26;67.16
72892;BME280;61032;50.782;6.818;2023-09-12T00:52:38;100146.81;;;22.24;66.62
72892;BME280;61032;50.782;6.818;2023-09-12T00:53:39;100143.69;;;22.19;66.82
72892;BME280;61032;50.782;6.818;2023-09-12T00:54:40;100147.78;;;22.11;67.14
72892;BME280;61032;50.782;6.818;2023-09-12T00:55:45;100146.22;;;22.06;67.64
72892;BME280;61032;50.782;6.818;2023-09-12T00:56:46;100151.94;;;21.95;68.06
72892;BME280;61032;50.782;6.818;2023-09-12T00:57:47;100150.78;;;21.89;68.01
72892;BME280;61032;50.782;6.818;2023-09-12T00:58:48;100152.00;;;21.88;68.48
72892;BME280;61032;50.782;6.818;2023-09-12T00:59:52;100151.63;;;21.83;68.57
72892;BME280;61032;50.782;6.818;2023-09-12T01:00:53;100146.00;;;21.86;68.77
72892;BME280;61032;50.782;6.818;2023-09-12T01:01:54;100144.81;;;21.87;68.32
72892;BME280;61032;50.782;6.818;2023-09-12T01:02:55;100154.38;;;21.90;68.55
72892;BME280;61032;50.782;6.818;2023-09-12T01:03:56;100140.38;;;21.90;68.80
72892;BME280;61032;50.782;6.818;2023-09-12T01:04:57;100133.19;;;21.89;68.51
72892;BME280;61032;50.782;6.818;2023-09-12T01:05:58;100151.22;;;21.84;68.66
72892;BME280;61032;50.782;6.818;2023-09-12T01:06:59;100138.50;;;21.80;68.98
72892;BME280;61032;50.782;6.818;2023-09-12T01:08:00;100136.50;;;21.80;69.18
72892;BME280;61032;50.782;6.818;2023-09-12T01:09:00;100139.72;;;21.79;68.97
72892;BME280;61032;50.782;6.818;2023-09-12T01:10:01;100138.28;;;21.60;69.97
72892;BME280;61032;50.782;6.818;2023-09-12T01:11:02;100134.34;;;21.54;70.42
72892;BME280;61032;50.782;6.818;2023-09-12T01:12:04;100133.25;;;21.41;70.72
72892;BME280;61032;50.782;6.818;2023-09-12T01:13:05;100142.81;;;21.43;70.93
72892;BME280;61032;50.782;6.818;2023-09-12T01:14:06;100134.91;;;21.35;71.08
72892;BME280;61032;50.782;6.818;2023-09-12T01:15:07;100138.13;;;21.33;71.26
72892;BME280;61032;50.782;6.818;2023-09-12T01:16:13;100132.16;;;21.31;71.70
72892;BME280;61032;50.782;6.818;2023-09-12T01:17:13;100130.56;;;21.30;71.29
72892;BME280;61032;50.782;6.818;2023-09-12T01:18:14;100128.56;;;21.31;71.32
72892;BME280;61032;50.782;6.818;2023-09-12T01:19:15;100139.31;;;21.36;71.37
72892;BME280;61032;50.782;6.818;2023-09-12T01:22:59;100141.63;;;21.41;71.20
72892;BME280;61032;50.782;6.818;2023-09-12T01:24:15;100144.56;;;21.26;71.67
72892;BME280;61032;50.782;6.818;2023-09-12T01:26:01;100141.00;;;21.22;71.91
72892;BME280;61032;50.782;6.818;2023-09-12T01:27:25;100147.50;;;21.05;72.48
72892;BME280;61032;50.782;6.818;2023-09-12T01:28:30;100143.13;;;21.01;73.26
72892;BME280;61032;50.782;6.818;2023-09-12T01:29:31;100138.31;;;21.01;72.90
72892;BME280;61032;50.782;6.818;2023-09-12T01:30:32;100138.69;;;21.07;72.73
72892;BME280;61032;50.782;6.818;2023-09-12T01:31:36;100147.09;;;21.03;73.17
72892;BME280;61032;50.782;6.818;2023-09-12T01:32:37;100144.75;;;20.98;72.95
72892;BME280;61032;50.782;6.818;2023-09-12T01:33:39;100140.41;;;20.90;73.69
72892;BME280;61032;50.782;6.818;2023-09-12T01:34:40;100140.03;;;20.84;73.83
72892;BME280;61032;50.782;6.818;2023-09-12T01:35:40;100134.44;;;20.88;73.79
72892;BME280;61032;50.782;6.818;2023-09-12T01:36:40;100142.44;;;20.86;73.68
72892;BME280;61032;50.782;6.818;2023-09-12T01:37:41;100144.00;;;20.90;73.35
72892;BME280;61032;50.782;6.818;2023-09-12T01:38:41;100135.94;;;21.00;73.40
72892;BME280;61032;50.782;6.818;2023-09-12T01:39:42;100138.69;;;21.07;73.13
72892;BME280;61032;50.782;6.818;2023-09-12T01:40:47;100138.31;;;21.01;73.30
72892;BME280;61032;50.782;6.818;2023-09-12T01:41:50;100142.31;;;21.00;73.40
72892;BME280;61032;50.782;6.818;2023-09-12T01:42:53;100135.13;;;21.03;73.25
72892;BME280;61032;50.782;6.818;2023-09-12T01:43:54;100140.69;;;21.06;73.19
72892;BME280;61032;50.782;6.818;2023-09-12T01:44:56;100145.09;;;21.07;72.79
72892;BME280;61032;50.782;6.818;2023-09-12T01:45:58;100137.09;;;21.06;73.00
72892;BME280;61032;50.782;6.818;2023-09-12T01:47:03;100135.91;;;21.07;72.82
72892;BME280;61032;50.782;6.818;2023-09-12T01:48:05;100139.44;;;21.14;72.47
72892;BME280;61032;50.782;6.818;2023-09-12T01:49:07;100136.66;;;21.14;72.55
72892;BME280;61032;50.782;6.818;2023-09-12T01:50:09;100132.25;;;21.13;72.28
72892;BME280;61032;50.782;6.818;2023-09-12T01:51:14;100133.91;;;21.07;72.81
72892;BME280;61032;50.782;6.818;2023-09-12T01:52:15;100129.91;;;21.08;72.84
72892;BME280;61032;50.782;6.818;2023-09-12T01:53:16;100127.88;;;21.12;72.98
72892;BME280;61032;50.782;6.818;2023-09-12T01:54:19;100130.25;;;21.17;72.51
72892;BME280;61032;50.782;6.818;2023-09-12T01:55:20;100131.44;;;21.16;72.31
72892;BME280;61032;50.782;6.818;2023-09-12T01:56:23;100134.25;;;21.13;72.46
72892;BME280;61032;50.782;6.818;2023-09-12T01:57:25;100127.50;;;21.10;72.27
72892;BME280;61032;50.782;6.818;2023-09-12T01:58:25;100136.25;;;21.12;72.64
72892;BME280;61032;50.782;6.818;2023-09-12T01:59:26;100133.91;;;21.04;72.78
72892;BME280;61032;50.782;6.818;2023-09-12T02:00:26;100137.50;;;21.08;72.79
72892;BME280;61032;50.782;6.818;2023-09-12T02:01:27;100138.28;;;21.08;72.70
72892;BME280;61032;50.782;6.818;2023-09-12T02:02:27;100133.50;;;21.05;72.67
72892;BME280;61032;50.782;6.818;2023-09-12T02:03:28;100131.13;;;21.04;72.82
72892;BME280;61032;50.782;6.818;2023-09-12T02:04:28;100136.72;;;21.00;72.90
72892;BME280;61032;50.782;6.818;2023-09-12T02:05:28;100136.00;;;20.96;73.37
72892;BME280;61032;50.782;6.818;2023-09-12T02:06:28;100140.78;;;20.96;72.91
72892;BME280;61032;50.782;6.818;2023-09-12T02:07:33;100144.78;;;20.91;73.37
72892;BME280;61032;50.782;6.818;2023-09-12T02:08:34;100148.81;;;20.83;73.97
72892;BME280;61032;50.782;6.818;2023-09-12T02:09:34;100150.03;;;20.82;73.43
72892;BME280;61032;50.782;6.818;2023-09-12T02:10:34;100147.72;;;20.70;74.24
72892;BME280;61032;50.782;6.818;2023-09-12T02:11:35;100154.50;;;20.72;74.48
72892;BME280;61032;50.782;6.818;2023-09-12T02:12:35;100151.72;;;20.69;73.98
72892;BME280;61032;50.782;6.818;2023-09-12T02:13:36;100147.34;;;20.61;74.67
72892;BME280;61032;50.782;6.818;2023-09-12T02:14:36;100154.53;;;20.62;74.54
72892;BME280;61032;50.782;6.818;2023-09-12T02:15:36;100155.75;;;20.61;74.76
72892;BME280;61032;50.782;6.818;2023-09-12T02:16:37;100154.94;;;20.64;74.52
72892;BME280;61032;50.782;6.818;2023-09-12T02:17:38;100154.13;;;20.67;74.25
72892;BME280;61032;50.782;6.818;2023-09-12T02:18:39;100150.13;;;20.68;74.32
72892;BME280;61032;50.782;6.818;2023-09-12T02:19:39;100145.72;;;20.67;73.73
72892;BME280;61032;50.782;6.818;2023-09-12T02:20:40;100145.72;;;20.70;74.08
72892;BME280;61032;50.782;6.818;2023-09-12T02:21:41;100145.72;;;20.74;74.14
72892;BME280;61032;50.782;6.818;2023-09-12T02:22:42;100140.06;;;20.81;73.67
72892;BME280;61032;50.782;6.818;2023-09-12T02:23:42;100142.84;;;20.84;73.52
72892;BME280;61032;50.782;6.818;2023-09-12T02:24:43;100145.63;;;20.84;73.25
72892;BME280;61032;50.782;6.818;2023-09-12T02:25:43;100141.66;;;20.82;73.52
72892;BME280;61032;50.782;6.818;2023-09-12T02:26:43;100146.44;;;20.85;73.32
72892;BME280;61032;50.782;6.818;2023-09-12T02:27:44;100140.06;;;20.81;73.28
72892;BME280;61032;50.782;6.818;2023-09-12T02:28:45;100136.84;;;20.86;73.30
72892;BME280;61032;50.782;6.818;2023-09-12T02:29:45;100138.03;;;20.85;72.98
72892;BME280;61032;50.782;6.818;2023-09-12T02:30:46;100139.25;;;20.84;73.07
72892;BME280;61032;50.782;6.818;2023-09-12T02:31:46;100134.03;;;20.86;73.39
72892;BME280;61032;50.782;6.818;2023-09-12T02:32:46;100132.03;;;20.86;73.32
72892;BME280;61032;50.782;6.818;2023-09-12T02:33:47;100142.84;;;20.84;73.08
72892;BME280;61032;50.782;6.818;2023-09-12T02:34:48;100134.03;;;20.86;73.33
72892;BME280;61032;50.782;6.818;2023-09-12T02:35:48;100124.13;;;20.78;73.56
72892;BME280;61032;50.782;6.818;2023-09-12T02:36:48;100126.16;;;20.74;73.95
72892;BME280;61032;50.782;6.818;2023-09-12T02:37:49;100133.75;;;20.66;73.91
72892;BME280;61032;50.782;6.818;2023-09-12T02:38:49;100129.78;;;20.64;73.96
72892;BME280;61032;50.782;6.818;2023-09-12T02:39:49;100123.81;;;20.58;73.98
72892;BME280;61032;50.782;6.818;2023-09-12T02:40:50;100129.03;;;20.56;74.50
72892;BME280;61032;50.782;6.818;2023-09-12T02:41:50;100128.19;;;20.63;74.06
72892;BME280;61032;50.782;6.818;2023-09-12T02:42:50;100126.59;;;20.62;74.19
72892;BME280;61032;50.782;6.818;2023-09-12T02:43:51;100123.41;;;20.63;74.50
72892;BME280;61032;50.782;6.818;2023-09-12T02:44:51;100137.34;;;20.67;73.93
72892;BME280;61032;50.782;6.818;2023-09-12T02:45:52;100131.75;;;20.70;74.30
72892;BME280;61032;50.782;6.818;2023-09-12T02:46:52;100134.53;;;20.70;74.05
72892;BME280;61032;50.782;6.818;2023-09-12T02:47:53;100140.13;;;20.74;73.84
72892;BME280;61032;50.782;6.818;2023-09-12T02:48:53;100132.91;;;20.76;73.90
72892;BME280;61032;50.782;6.818;2023-09-12T02:49:54;100131.69;;;20.81;73.92
72892;BME280;61032;50.782;6.818;2023-09-12T02:50:54;100134.53;;;20.74;73.77
72892;BME280;61032;50.782;6.818;2023-09-12T02:51:54;100129.75;;;20.74;74.42
72892;BME280;61032;50.782;6.818;2023-09-12T02:52:54;100131.34;;;20.72;74.23
72892;BME280;61032;50.782;6.818;2023-09-12T02:53:55;100131.34;;;20.72;74.38
72892;BME280;61032;50.782;6.818;2023-09-12T02:54:55;100132.94;;;20.73;74.26
72892;BME280;61032;50.782;6.818;2023-09-12T02:55:55;100129.75;;;20.71;74.05
72892;BME280;61032;50.782;6.818;2023-09-12T02:56:56;100133.72;;;20.73;74.19
72892;BME280;61032;50.782;6.818;2023-09-12T02:57:56;100134.94;;;20.69;74.17
72892;BME280;61032;50.782;6.818;2023-09-12T02:58:57;100131.38;;;20.65;74.16
72892;BME280;61032;50.782;6.818;2023-09-12T02:59:58;100135.34;;;20.67;73.94
72892;BME280;61032;50.782;6.818;2023-09-12T03:00:58;100132.53;;;20.71;73.97
72892;BME280;61032;50.782;6.818;2023-09-12T03:01:59;100126.97;;;20.71;74.05
72892;BME280;61032;50.782;6.818;2023-09-12T03:03:00;100128.53;;;20.75;73.65
72892;BME280;61032;50.782;6.818;2023-09-12T03:04:00;100120.16;;;20.72;73.46
72892;BME280;61032;50.782;6.818;2023-09-12T03:05:01;100119.75;;;20.77;73.48
72892;BME280;61032;50.782;6.818;2023-09-12T03:06:04;100121.34;;;20.74;73.34
72892;BME280;61032;50.782;6.818;2023-09-12T03:07:04;100118.97;;;20.69;73.79
72892;BME280;61032;50.782;6.818;2023-09-12T03:08:04;100117.78;;;20.70;73.77
72892;BME280;61032;50.782;6.818;2023-09-12T03:09:05;100119.78;;;20.70;73.32
72892;BME280;61032;50.782;6.818;2023-09-12T03:10:07;100116.59;;;20.68;73.67
72892;BME280;61032;50.782;6.818;2023-09-12T03:11:07;100122.59;;;20.63;74.24
72892;BME280;61032;50.782;6.818;2023-09-12T03:12:08;100123.41;;;20.63;74.11
72892;BME280;61032;50.782;6.818;2023-09-12T03:13:08;100124.97;;;20.68;73.54
72892;BME280;61032;50.782;6.818;2023-09-12T03:14:11;100125.84;;;20.57;74.16
72892;BME280;61032;50.782;6.818;2023-09-12T03:15:11;100117.81;;;20.59;74.13
72892;BME280;61032;50.782;6.818;2023-09-12T03:16:12;100121.06;;;20.54;74.71
72892;BME280;61032;50.782;6.818;2023-09-12T03:17:13;100121.09;;;20.47;74.40
72892;BME280;61032;50.782;6.818;2023-09-12T03:18:14;100129.09;;;20.45;74.33
72892;BME280;61032;50.782;6.818;2023-09-12T03:19:14;100118.31;;;20.47;74.91
72892;BME280;61032;50.782;6.818;2023-09-12T03:20:14;100122.66;;;20.55;74.71
72892;BME280;61032;50.782;6.818;2023-09-12T03:21:15;100119.13;;;20.44;75.08
72892;BME280;61032;50.782;6.818;2023-09-12T03:22:15;100118.38;;;20.37;74.76
72892;BME280;61032;50.782;6.818;2023-09-12T03:23:15;100122.72;;;20.41;75.12
72892;BME280;61032;50.782;6.818;2023-09-12T03:24:16;100125.50;;;20.45;74.77
72892;BME280;61032;50.782;6.818;2023-09-12T03:25:18;100121.91;;;20.44;75.05
72892;BME280;61032;50.782;6.818;2023-09-12T03:26:18;100127.06;;;20.49;75.19
72892;BME280;61032;50.782;6.818;2023-09-12T03:27:19;100124.72;;;20.41;74.52
72892;BME280;61032;50.782;6.818;2023-09-12T03:28:19;100128.31;;;20.41;74.89
72892;BME280;61032;50.782;6.818;2023-09-12T03:29:20;100129.09;;;20.45;74.83
72892;BME280;61032;50.782;6.818;2023-09-12T03:30:20;100129.09;;;20.45;74.92
72892;BME280;61032;50.782;6.818;2023-09-12T03:31:21;100124.28;;;20.49;74.99
72892;BME280;61032;50.782;6.818;2023-09-12T03:32:21;100126.66;;;20.54;74.28
72892;BME280;61032;50.782;6.818;2023-09-12T03:33:21;100126.66;;;20.54;74.40
72892;BME280;61032;50.782;6.818;2023-09-12T03:34:22;100119.41;;;20.61;74.36
72892;BME280;61032;50.782;6.818;2023-09-12T03:35:22;100121.00;;;20.62;74.20
72892;BME280;61032;50.782;6.818;2023-09-12T03:36:22;100127.41;;;20.58;74.17
72892;BME280;61032;50.782;6.818;2023-09-12T03:37:23;100117.00;;;20.63;74.35
72892;BME280;61032;50.782;6.818;2023-09-12T03:38:27;100115.50;;;20.47;74.31
72892;BME280;61032;50.782;6.818;2023-09-12T03:39:27;100114.34;;;20.41;75.15
72892;BME280;61032;50.782;6.818;2023-09-12T03:40:29;100121.91;;;20.41;75.07
72892;BME280;61032;50.782;6.818;2023-09-12T03:41:32;100113.16;;;20.35;75.64
72892;BME280;61032;50.782;6.818;2023-09-12T03:42:34;100112.75;;;20.33;75.49
72892;BME280;61032;50.782;6.818;2023-09-12T03:43:34;100117.94;;;20.38;75.62
72892;BME280;61032;50.782;6.818;2023-09-12T03:44:35;100117.13;;;20.41;75.53
72892;BME280;61032;50.782;6.818;2023-09-12T03:45:35;100117.94;;;20.38;75.94
72892;BME280;61032;50.782;6.818;2023-09-12T03:46:35;100121.53;;;20.35;76.12
72892;BME280;61032;50.782;6.818;2023-09-12T03:47:36;100131.13;;;20.31;76.02
72892;BME280;61032;50.782;6.818;2023-09-12T03:48:36;100123.53;;;20.31;76.57
72892;BME280;61032;50.782;6.818;2023-09-12T03:49:36;100127.53;;;20.30;76.12
72892;BME280;61032;50.782;6.818;2023-09-12T03:50:37;100123.53;;;20.38;76.45
72892;BME280;61032;50.782;6.818;2023-09-12T03:51:37;100121.91;;;20.48;75.95
72892;BME280;61032;50.782;6.818;2023-09-12T03:52:38;100123.88;;;20.47;75.74
72892;BME280;61032;50.782;6.818;2023-09-12T03:53:38;100122.69;;;20.48;75.79
72892;BME280;61032;50.782;6.818;2023-09-12T03:54:38;100122.69;;;20.48;75.84
72892;BME280;61032;50.782;6.818;2023-09-12T03:55:39;100117.88;;;20.52;75.47
72892;BME280;61032;50.782;6.818;2023-09-12T03:56:39;100116.69;;;20.50;75.43
72892;BME280;61032;50.782;6.818;2023-09-12T03:57:39;100107.91;;;20.51;75.88
72892;BME280;61032;50.782;6.818;2023-09-12T03:58:40;100110.31;;;20.53;75.31
72892;BME280;61032;50.782;6.818;2023-09-12T03:59:40;100108.75;;;20.45;76.25
72892;BME280;61032;50.782;6.818;2023-09-12T04:00:40;100112.31;;;20.45;76.29
72892;BME280;61032;50.782;6.818;2023-09-12T04:01:41;100101.94;;;20.46;76.20
72892;BME280;61032;50.782;6.818;2023-09-12T04:02:41;100101.53;;;20.47;76.39
72892;BME280;61032;50.782;6.818;2023-09-12T04:03:41;100107.56;;;20.39;76.14
72892;BME280;61032;50.782;6.818;2023-09-12T04:04:43;100098.38;;;20.38;76.68
72892;BME280;61032;50.782;6.818;2023-09-12T04:05:43;100097.19;;;20.43;75.87
72892;BME280;61032;50.782;6.818;2023-09-12T04:06:45;100100.75;;;20.47;76.41
72892;BME280;61032;50.782;6.818;2023-09-12T04:07:46;100098.75;;;20.47;76.30
72892;BME280;61032;50.782;6.818;2023-09-12T04:08:47;100103.16;;;20.45;76.03
72892;BME280;61032;50.782;6.818;2023-09-12T04:09:47;100094.75;;;20.52;75.98
72892;BME280;61032;50.782;6.818;2023-09-12T04:10:48;100093.88;;;20.62;75.69
72892;BME280;61032;50.782;6.818;2023-09-12T04:11:48;100091.06;;;20.66;75.63
72892;BME280;61032;50.782;6.818;2023-09-12T04:12:48;100087.44;;;20.69;75.49
72892;BME280;61032;50.782;6.818;2023-09-12T04:13:49;100091.03;;;20.73;75.28
72892;BME280;61032;50.782;6.818;2023-09-12T04:14:50;100091.84;;;20.66;75.40
72892;BME280;61032;50.782;6.818;2023-09-12T04:15:51;100085.50;;;20.58;75.66
72892;BME280;61032;50.782;6.818;2023-09-12T04:16:51;100088.69;;;20.61;75.87
72892;BME280;61032;50.782;6.818;2023-09-12T04:17:52;100082.34;;;20.56;75.37
72892;BME280;61032;50.782;6.818;2023-09-12T04:18:53;100080.31;;;20.61;75.40
72892;BME280;61032;50.782;6.818;2023-09-12T04:19:53;100076.38;;;20.54;75.77
72892;BME280;61032;50.782;6.818;2023-09-12T04:20:53;100070.41;;;20.49;76.31
72892;BME280;61032;50.782;6.818;2023-09-12T04:21:57;100057.66;;;20.48;76.24
72892;BME280;61032;50.782;6.818;2023-09-12T04:23:00;100043.66;;;20.51;75.91
72892;BME280;61032;50.782;6.818;2023-09-12T04:24:01;100042.06;;;20.54;75.61
72892;BME280;61032;50.782;6.818;2023-09-12T04:25:01;100034.06;;;20.56;75.56
72892;BME280;61032;50.782;6.818;2023-09-12T04:26:03;100037.28;;;20.54;75.62
72892;BME280;61032;50.782;6.818;2023-09-12T04:27:03;100022.91;;;20.52;75.52
72892;BME280;61032;50.782;6.818;2023-09-12T04:28:04;100020.09;;;20.56;75.58
72892;BME280;61032;50.782;6.818;2023-09-12T04:29:04;100006.94;;;20.56;75.61
72892;BME280;61032;50.782;6.818;2023-09-12T04:30:05;100010.56;;;20.50;75.61
72892;BME280;61032;50.782;6.818;2023-09-12T04:31:05;100022.94;;;20.45;76.24
72892;BME280;61032;50.782;6.818;2023-09-12T04:32:06;100043.28;;;20.49;76.26
72892;BME280;61032;50.782;6.818;2023-09-12T04:33:06;100053.63;;;20.52;76.14
72892;BME280;61032;50.782;6.818;2023-09-12T04:34:06;100048.81;;;20.56;76.07
72892;BME280;61032;50.782;6.818;2023-09-12T04:35:07;100063.63;;;20.53;76.74
72892;BME280;61032;50.782;6.818;2023-09-12T04:36:07;100065.19;;;20.54;76.52
72892;BME280;61032;50.782;6.818;2023-09-12T04:37:07;100072.38;;;20.55;77.12
72892;BME280;61032;50.782;6.818;2023-09-12T04:38:08;100078.91;;;20.20;78.37
72892;BME280;61032;50.782;6.818;2023-09-12T04:39:08;100085.44;;;19.85;80.09
72892;BME280;61032;50.782;6.818;2023-09-12T04:40:09;100082.22;;;19.90;80.70
72892;BME280;61032;50.782;6.818;2023-09-12T04:41:11;100083.44;;;19.75;81.54
72892;BME280;61032;50.782;6.818;2023-09-12T04:42:15;100075.53;;;19.63;82.74
72892;BME280;61032;50.782;6.818;2023-09-12T04:43:15;100076.72;;;19.66;82.73
72892;BME280;61032;50.782;6.818;2023-09-12T04:44:15;100073.91;;;19.66;83.20
72892;BME280;61032;50.782;6.818;2023-09-12T04:45:16;100070.31;;;19.72;83.23
72892;BME280;61032;50.782;6.818;2023-09-12T04:46:16;100076.31;;;19.60;83.76
72892;BME280;61032;50.782;6.818;2023-09-12T04:47:16;100072.34;;;19.61;83.80
72892;BME280;61032;50.782;6.818;2023-09-12T04:48:17;100068.34;;;19.73;83.93
72892;BME280;61032;50.782;6.818;2023-09-12T04:49:17;100064.69;;;19.83;83.64
72892;BME280;61032;50.782;6.818;2023-09-12T04:50:17;100060.69;;;19.91;83.70
72892;BME280;61032;50.782;6.818;2023-09-12T04:51:17;100054.28;;;19.98;84.06
72892;BME280;61032;50.782;6.818;2023-09-12T04:52:18;100057.47;;;20.00;83.25
72892;BME280;61032;50.782;6.818;2023-09-12T04:53:18;100062.63;;;20.05;83.18
72892;BME280;61032;50.782;6.818;2023-09-12T04:54:19;100067.41;;;20.01;83.67
72892;BME280;61032;50.782;6.818;2023-09-12T04:55:19;100082.97;;;20.05;82.70
72892;BME280;61032;50.782;6.818;2023-09-12T04:56:19;100081.75;;;20.06;82.52
72892;BME280;61032;50.782;6.818;2023-09-12T04:57:19;100083.75;;;20.02;82.66
72892;BME280;61032;50.782;6.818;2023-09-12T04:58:20;100088.13;;;20.07;82.54
72892;BME280;61032;50.782;6.818;2023-09-12T04:59:20;100088.94;;;20.11;82.63
72892;BME280;61032;50.782;6.818;2023-09-12T05:00:21;100084.88;;;20.19;83.18
72892;BME280;61032;50.782;6.818;2023-09-12T05:01:21;100086.06;;;20.25;82.54
72892;BME280;61032;50.782;6.818;2023-09-12T05:02:21;100093.63;;;20.35;81.77
72892;BME280;61032;50.782;6.818;2023-09-12T05:03:22;100092.41;;;20.36;81.35
72892;BME280;61032;50.782;6.818;2023-09-12T05:04:22;100097.19;;;20.39;81.56
72892;BME280;61032;50.782;6.818;2023-09-12T05:05:23;100093.25;;;20.37;81.16
72892;BME280;61032;50.782;6.818;2023-09-12T05:06:23;100098.38;;;20.38;81.27
72892;BME280;61032;50.782;6.818;2023-09-12T05:07:24;100091.63;;;20.32;81.22
72892;BME280;61032;50.782;6.818;2023-09-12T05:08:24;100100.00;;;20.36;81.85
72892;BME280;61032;50.782;6.818;2023-09-12T05:09:24;100099.16;;;20.42;82.09
72892;BME280;61032;50.782;6.818;2023-09-12T05:10:25;100103.94;;;20.45;81.35
72892;BME280;61032;50.782;6.818;2023-09-12T05:11:25;100109.56;;;20.38;81.27
72892;BME280;61032;50.782;6.818;2023-09-12T05:12:25;100108.38;;;20.32;81.18
72892;BME280;61032;50.782;6.818;2023-09-12T05:13:26;100114.75;;;20.36;81.49
72892;BME280;61032;50.782;6.818;2023-09-12T05:14:27;100125.56;;;20.27;82.12
72892;BME280;61032;50.782;6.818;2023-09-12T05:15:27;100124.34;;;20.24;81.49
72892;BME280;61032;50.782;6.818;2023-09-12T05:16:27;100132.75;;;20.21;82.14
72892;BME280;61032;50.782;6.818;2023-09-12T05:17:28;100140.38;;;20.13;82.03
72892;BME280;61032;50.782;6.818;2023-09-12T05:18:28;100144.38;;;20.09;82.97
72892;BME280;61032;50.782;6.818;2023-09-12T05:19:29;100148.75;;;20.10;83.05
72892;BME280;61032;50.782;6.818;2023-09-12T05:20:30;100147.16;;;20.16;82.61
72892;BME280;61032;50.782;6.818;2023-09-12T05:21:30;100153.06;;;20.25;82.08
72892;BME280;61032;50.782;6.818;2023-09-12T05:22:30;100147.50;;;20.25;81.72